Time;durP1;ratioP1;P1;durP2;ratioP2;P2;SDS_P1;SDS_P2;PMS_P1;PMS_P2;Temp;Humidity;BMP_temperature;BMP_pressure;BME280_temperature;BME280_humidity;BME280_pressure;Samples;Min_cycle;Max_cycle;Signal;HPM_P1;HPM_P2
2021/12/14 00:00:47;;;;;;;3.67;3.37;;;9.30;99.90;;;;;;4975637;28;20391;-70
2021/12/14 00:03:24;;;;;;;4.30;3.80;;;9.30;99.90;;;;;;4975105;28;20423;-70
2021/12/14 00:05:50;;;;;;;3.60;3.30;;;9.40;99.90;;;;;;4972694;28;20463;-70
2021/12/14 00:08:17;;;;;;;4.93;4.23;;;9.20;99.90;;;;;;4975186;28;20785;-70
2021/12/14 00:13:41;;;;;;;3.87;3.50;;;9.20;99.90;;;;;;4975138;28;20927;-70
2021/12/14 00:16:08;;;;;;;3.77;3.40;;;9.20;99.90;;;;;;4973375;28;20506;-69
2021/12/14 00:18:34;;;;;;;4.50;3.30;;;9.20;99.90;;;;;;4975168;28;20454;-70
2021/12/14 00:21:07;;;;;;;4.43;4.03;;;9.30;99.90;;;;;;4975366;28;20411;-70
2021/12/14 00:26:19;;;;;;;3.83;3.53;;;9.30;99.90;;;;;;4973269;28;20499;-68
2021/12/14 00:28:46;;;;;;;4.43;4.03;;;9.40;99.90;;;;;;4974717;28;20414;-69
2021/12/14 00:31:16;;;;;;;4.60;3.70;;;9.30;99.90;;;;;;4974311;28;20929;-70
2021/12/14 00:33:45;;;;;;;6.33;3.80;;;9.30;99.90;;;;;;4973683;28;20883;-69
2021/12/14 00:36:12;;;;;;;4.37;3.97;;;9.40;99.90;;;;;;4974699;28;20483;-70
2021/12/14 00:38:40;;;;;;;4.35;3.95;;;9.40;99.90;;;;;;4971911;28;20441;-69
2021/12/14 00:41:20;;;;;;;5.33;4.40;;;9.40;99.90;;;;;;4964557;28;20179;-72
2021/12/14 00:43:47;;;;;;;6.47;3.93;;;9.40;99.90;;;;;;4954164;29;20436;-69
2021/12/14 00:46:14;;;;;;;4.00;3.67;;;9.40;99.90;;;;;;4963219;28;20506;-70
2021/12/14 00:48:40;;;;;;;3.40;3.10;;;9.50;99.90;;;;;;4974375;28;20447;-69
2021/12/14 00:51:06;;;;;;;4.33;3.90;;;9.30;99.90;;;;;;4972701;28;20994;-69
2021/12/14 00:53:32;;;;;;;4.30;3.90;;;9.40;99.90;;;;;;4974615;28;20418;-70
2021/12/14 00:56:01;;;;;;;4.70;3.87;;;9.40;99.90;;;;;;4973553;28;20900;-70
2021/12/14 00:58:27;;;;;;;4.10;3.80;;;9.50;99.90;;;;;;4974341;28;20463;-70
2021/12/14 01:01:15;;;;;;;4.93;4.47;;;9.40;99.90;;;;;;4973238;28;20472;-70
2021/12/14 01:03:46;;;;;;;4.60;4.20;;;9.40;99.90;;;;;;4935820;29;20187;-70
2021/12/14 01:06:12;;;;;;;4.57;4.17;;;9.30;99.90;;;;;;4935632;29;20437;-70
2021/12/14 01:08:42;;;;;;;4.57;4.10;;;9.30;99.90;;;;;;4935360;29;20422;-70
2021/12/14 01:11:41;;;;;;;4.53;4.13;;;9.20;99.90;;;;;;4936448;29;20470;-69
2021/12/14 01:14:18;;;;;;;5.50;4.10;;;9.20;99.90;;;;;;4935522;29;20432;-69
2021/12/14 01:16:55;;;;;;;4.50;4.00;;;9.20;99.90;;;;;;4938248;28;20442;-69
2021/12/14 01:19:26;;;;;;;4.10;3.67;;;9.30;99.90;;;;;;4963072;28;20516;-70
2021/12/14 01:27:23;;;;;;;4.43;4.03;;;9.30;99.90;;;;;;4973843;28;20418;-69
2021/12/14 01:29:53;;;;;;;4.97;4.17;;;9.30;99.90;;;;;;4977564;28;20424;-70
2021/12/14 01:32:22;;;;;;;4.00;3.70;;;9.30;99.90;;;;;;4977760;28;20513;-70
2021/12/14 01:34:48;;;;;;;4.80;4.30;;;9.30;99.90;;;;;;4976192;28;20811;-70
2021/12/14 01:37:19;;;;;;;4.43;3.97;;;9.40;99.90;;;;;;4977101;28;20434;-69
2021/12/14 01:40:01;;;;;;;5.47;4.20;;;9.50;99.90;;;;;;4978107;28;20218;-70
2021/12/14 01:42:30;;;;;;;4.83;4.30;;;9.50;99.90;;;;;;4978419;28;20422;-70
2021/12/14 01:45:18;;;;;;;4.90;4.10;;;9.50;99.90;;;;;;4976421;28;20453;-69
2021/12/14 01:47:52;;;;;;;4.33;3.70;;;9.50;99.90;;;;;;4977732;28;20938;-69
2021/12/14 01:50:24;;;;;;;3.93;3.63;;;9.50;99.90;;;;;;4977815;28;20443;-69
2021/12/14 01:52:50;;;;;;;4.27;3.90;;;9.50;99.90;;;;;;4978104;28;20845;-69
2021/12/14 01:55:22;;;;;;;4.60;4.20;;;9.50;99.90;;;;;;4975845;28;20537;-70
2021/12/14 01:57:48;;;;;;;5.23;3.93;;;9.50;99.90;;;;;;4976833;28;20256;-69
2021/12/14 02:00:25;;;;;;;5.10;4.00;;;9.40;99.90;;;;;;4977952;28;20463;-70
2021/12/14 02:02:51;;;;;;;4.53;3.80;;;9.30;99.90;;;;;;4977453;28;20487;-69
2021/12/14 02:05:27;;;;;;;4.40;3.83;;;9.40;99.90;;;;;;4973186;28;20529;-70
2021/12/14 02:07:54;;;;;;;4.20;3.80;;;9.40;99.90;;;;;;4960748;29;20194;-69
2021/12/14 02:10:29;;;;;;;4.50;4.10;;;9.30;99.90;;;;;;4965137;29;20413;-68
2021/12/14 02:12:55;;;;;;;5.57;3.70;;;9.30;99.90;;;;;;4965746;29;20530;-68
2021/12/14 02:15:25;;;;;;;4.37;3.97;;;9.30;99.90;;;;;;4959831;28;20495;-69
2021/12/14 02:17:53;;;;;;;5.37;3.70;;;9.30;99.90;;;;;;4958445;28;20508;-68
2021/12/14 02:20:30;;;;;;;4.70;4.30;;;9.40;99.90;;;;;;4958229;28;20423;-70
2021/12/14 02:22:57;;;;;;;5.83;4.63;;;9.40;99.90;;;;;;4957952;29;20437;-70
2021/12/14 02:25:23;;;;;;;5.43;4.90;;;9.30;99.90;;;;;;4958124;29;20433;-70
2021/12/14 02:27:51;;;;;;;8.83;4.53;;;9.30;99.90;;;;;;4958587;28;20418;-70
2021/12/14 02:30:22;;;;;;;5.40;4.90;;;9.20;99.90;;;;;;4957638;28;20408;-69
2021/12/14 02:32:48;;;;;;;4.70;4.23;;;9.20;99.90;;;;;;4957749;29;20438;-69
2021/12/14 02:35:18;;;;;;;6.40;5.00;;;9.20;99.90;;;;;;4957492;29;20494;-69
2021/12/14 02:37:53;;;;;;;6.10;4.60;;;9.20;99.90;;;;;;4958059;28;20181;-70
2021/12/14 02:40:54;;;;;;;5.20;4.70;;;9.20;99.90;;;;;;4962772;28;20456;-70
2021/12/14 02:43:39;;;;;;;7.67;5.47;;;9.20;99.90;;;;;;4976660;28;20620;-70
2021/12/14 02:46:22;;;;;;;5.67;4.27;;;9.20;99.90;;;;;;4975931;28;20463;-69
2021/12/14 02:48:55;;;;;;;4.93;4.43;;;9.30;99.90;;;;;;4977062;28;20513;-69
2021/12/14 02:51:34;;;;;;;5.70;5.13;;;9.30;99.90;;;;;;4975298;28;20429;-70
2021/12/14 02:54:22;;;;;;;6.30;5.20;;;9.40;99.90;;;;;;4976838;28;20418;-70
2021/12/14 02:56:54;;;;;;;7.23;5.27;;;9.40;99.90;;;;;;4976959;28;20440;-70
2021/12/14 02:59:27;;;;;;;6.83;5.23;;;9.30;99.90;;;;;;4976702;28;20461;-69
2021/12/14 03:01:58;;;;;;;6.80;5.03;;;9.30;99.90;;;;;;4973536;28;20419;-69
2021/12/14 03:04:24;;;;;;;6.17;5.53;;;9.30;99.90;;;;;;4976657;28;20571;-70
2021/12/14 03:06:54;;;;;;;5.93;4.97;;;9.30;99.90;;;;;;4976611;28;20518;-70
2021/12/14 03:09:53;;;;;;;7.17;6.27;;;9.30;99.90;;;;;;4977107;28;20802;-70
2021/12/14 03:12:30;;;;;;;6.97;5.60;;;9.10;99.90;;;;;;4975089;28;20452;-70
2021/12/14 03:15:05;;;;;;;6.87;5.73;;;9.10;99.90;;;;;;4976793;28;20413;-71
2021/12/14 03:17:31;;;;;;;6.60;4.90;;;9.10;99.90;;;;;;4972901;28;20800;-71
2021/12/14 03:20:01;;;;;;;8.13;5.50;;;9.10;99.90;;;;;;4967078;28;20463;-71
2021/12/14 03:22:41;;;;;;;8.70;6.00;;;9.10;99.90;;;;;;4960356;28;20174;-70
2021/12/14 03:25:08;;;;;;;7.17;5.03;;;9.10;99.90;;;;;;4960509;29;20434;-70
2021/12/14 03:27:37;;;;;;;7.83;6.00;;;9.10;99.90;;;;;;4957363;29;20445;-70
2021/12/14 03:30:16;;;;;;;9.53;6.53;;;9.20;99.90;;;;;;4956793;29;20418;-69
2021/12/14 03:32:42;;;;;;;6.60;5.00;;;9.20;99.90;;;;;;4958038;28;20387;-70
2021/12/14 03:35:08;;;;;;;8.00;5.77;;;9.20;99.90;;;;;;4956847;29;20432;-69
2021/12/14 03:37:33;;;;;;;8.30;6.53;;;9.30;99.90;;;;;;4955999;28;20780;-69
2021/12/14 03:40:01;;;;;;;7.60;6.40;;;9.30;99.90;;;;;;4956561;28;20302;-71
2021/12/14 03:42:36;;;;;;;7.90;6.37;;;9.30;99.90;;;;;;4956562;28;20636;-70
2021/12/14 03:45:05;;;;;;;7.03;6.00;;;9.30;99.90;;;;;;4956906;28;20506;-69
2021/12/14 03:47:35;;;;;;;8.53;6.17;;;9.30;99.90;;;;;;4956384;28;20423;-70
2021/12/14 03:50:11;;;;;;;10.17;7.10;;;9.30;99.90;;;;;;4956361;29;20762;-70
2021/12/14 03:52:38;;;;;;;9.40;6.70;;;9.20;99.90;;;;;;4955626;28;20423;-70
2021/12/14 03:55:11;;;;;;;8.03;6.67;;;9.20;99.90;;;;;;4957014;28;20457;-70
2021/12/14 03:57:37;;;;;;;10.50;7.57;;;9.10;99.90;;;;;;4955796;28;20417;-70
2021/12/14 04:00:11;;;;;;;10.50;7.40;;;9.00;99.90;;;;;;4956182;28;20961;-70
2021/12/14 04:02:36;;;;;;;11.20;7.90;;;8.90;99.90;;;;;;4956231;29;20185;-70
2021/12/14 04:05:09;;;;;;;10.50;8.07;;;8.90;99.90;;;;;;4957150;28;20443;-71
2021/12/14 04:07:37;;;;;;;9.13;7.20;;;9.00;99.90;;;;;;4959167;28;20245;-71
2021/12/14 04:10:08;;;;;;;14.17;8.10;;;9.00;99.90;;;;;;4962846;29;20427;-70
2021/12/14 04:12:35;;;;;;;9.33;8.27;;;8.90;99.90;;;;;;4966617;29;20435;-70
2021/12/14 04:15:01;;;;;;;10.33;7.80;;;8.90;99.90;;;;;;4964554;28;20437;-69
2021/12/14 04:17:28;;;;;;;10.60;7.97;;;8.90;99.90;;;;;;4964559;28;20429;-71
2021/12/14 04:19:54;;;;;;;11.63;9.07;;;8.90;99.90;;;;;;4961612;29;20466;-71
2021/12/14 04:22:30;;;;;;;10.57;7.90;;;8.80;99.90;;;;;;4960247;29;20421;-70
2021/12/14 04:25:01;;;;;;;9.23;7.60;;;8.80;99.90;;;;;;4960605;29;20398;-70
2021/12/14 04:27:31;;;;;;;10.13;7.77;;;8.90;99.90;;;;;;4958355;28;21132;-70
2021/12/14 04:30:00;;;;;;;9.37;8.10;;;8.90;99.90;;;;;;4955726;28;20898;-69
2021/12/14 04:32:26;;;;;;;12.20;9.23;;;9.00;99.90;;;;;;4954892;28;20422;-68
2021/12/14 04:34:55;;;;;;;11.13;8.10;;;8.90;99.90;;;;;;4955680;28;20425;-70
2021/12/14 04:37:20;;;;;;;12.23;8.07;;;9.00;99.90;;;;;;4956249;28;20191;-70
2021/12/14 04:39:53;;;;;;;12.07;8.60;;;9.00;99.90;;;;;;4957652;28;20465;-70
2021/12/14 04:53:33;;;;;;;13.43;10.10;;;9.00;99.90;;;;;;4949061;29;20453;-70
2021/12/14 04:56:00;;;;;;;13.20;8.90;;;9.00;99.90;;;;;;4950281;28;20445;-69
2021/12/14 04:58:38;;;;;;;11.87;8.97;;;8.90;99.90;;;;;;4954589;29;20534;-69
2021/12/14 05:01:08;;;;;;;15.03;9.87;;;8.90;99.90;;;;;;4951851;28;20417;-69
2021/12/14 05:04:00;;;;;;;14.87;9.83;;;8.90;99.90;;;;;;4953710;29;20923;-70
2021/12/14 05:06:33;;;;;;;15.30;9.70;;;8.90;99.90;;;;;;4951951;29;20459;-69
2021/12/14 05:09:21;;;;;;;14.70;9.80;;;9.00;99.90;;;;;;4949266;28;20893;-69
2021/12/14 05:11:53;;;;;;;12.23;9.40;;;8.90;99.90;;;;;;4955909;28;20512;-69
2021/12/14 05:14:19;;;;;;;15.17;10.20;;;9.00;99.90;;;;;;4950733;29;20432;-69
2021/12/14 05:16:46;;;;;;;14.77;10.27;;;8.90;99.90;;;;;;4956052;28;20452;-71
2021/12/14 05:19:12;;;;;;;13.00;9.70;;;8.90;99.90;;;;;;4953476;28;20458;-70
2021/12/14 05:21:45;;;;;;;12.27;10.23;;;8.80;99.90;;;;;;4955729;29;20417;-70
2021/12/14 05:24:13;;;;;;;13.77;10.10;;;8.80;99.90;;;;;;4956759;28;20858;-70
2021/12/14 05:26:39;;;;;;;14.20;9.90;;;8.90;99.90;;;;;;4957104;28;20443;-70
2021/12/14 05:29:07;;;;;;;16.37;9.20;;;8.90;99.90;;;;;;4955654;29;20418;-70
2021/12/14 05:31:32;;;;;;;14.07;10.70;;;8.90;99.90;;;;;;4954132;28;20432;-69
2021/12/14 05:33:59;;;;;;;15.77;11.80;;;8.90;99.90;;;;;;4959884;28;20460;-71
2021/12/14 05:36:25;;;;;;;14.07;9.27;;;8.90;99.90;;;;;;4954273;28;20578;-71
2021/12/14 05:44:18;;;;;;;13.93;10.13;;;8.80;99.90;;;;;;4955975;28;20839;-71
2021/12/14 05:46:50;;;;;;;16.87;11.17;;;8.80;99.90;;;;;;4953676;28;20457;-71
2021/12/14 05:49:21;;;;;;;17.37;11.70;;;8.70;99.90;;;;;;4997659;22;20490;-67
2021/12/14 05:51:49;;;;;;;16.67;11.30;;;8.70;99.90;;;;;;5003314;28;20409;-66
2021/12/14 05:54:25;;;;;;;18.50;11.70;;;8.60;99.90;;;;;;5013109;28;20450;-68
2021/12/14 05:56:52;;;;;;;17.67;12.50;;;8.70;99.90;;;;;;5013261;28;20407;-67
2021/12/14 05:59:20;;;;;;;16.90;11.10;;;8.70;99.90;;;;;;5014096;28;20471;-69
2021/12/14 06:01:46;;;;;;;15.97;11.97;;;8.80;99.90;;;;;;5013706;28;20461;-68
2021/12/14 06:04:12;;;;;;;18.20;11.73;;;8.80;99.90;;;;;;5014739;28;20785;-68
2021/12/14 06:07:05;;;;;;;19.63;13.00;;;8.80;99.90;;;;;;4995636;28;20423;-68
2021/12/14 06:09:34;;;;;;;17.93;11.73;;;8.80;99.90;;;;;;5012099;28;20287;-68
2021/12/14 06:12:07;;;;;;;17.10;12.33;;;8.90;99.90;;;;;;5014128;28;20505;-68
2021/12/14 06:14:40;;;;;;;18.20;11.90;;;8.80;99.90;;;;;;5015033;28;20930;-68
2021/12/14 06:17:06;;;;;;;19.83;13.07;;;8.80;99.90;;;;;;5016038;28;20455;-68
2021/12/14 06:19:37;;;;;;;15.87;12.23;;;8.80;99.90;;;;;;5017146;28;20465;-68
2021/12/14 06:22:10;;;;;;;16.07;10.97;;;8.80;99.90;;;;;;5017874;28;20160;-67
2021/12/14 06:24:39;;;;;;;15.73;11.57;;;8.70;99.90;;;;;;5017933;28;20414;-66
2021/12/14 06:27:09;;;;;;;17.23;12.53;;;8.70;99.90;;;;;;5017421;28;20449;-67
2021/12/14 06:29:43;;;;;;;20.80;14.48;;;8.80;99.90;;;;;;5017771;28;20415;-67
2021/12/14 06:32:13;;;;;;;21.37;13.67;;;8.70;99.90;;;;;;5018458;28;20168;-66
2021/12/14 06:34:50;;;;;;;17.10;12.50;;;8.80;99.90;;;;;;5019174;28;20403;-67
2021/12/14 06:40:16;;;;;;;19.30;12.30;;;8.70;99.90;;;;;;5017846;28;20545;-67
2021/12/14 06:42:46;;;;;;;18.77;12.60;;;8.80;99.90;;;;;;5017601;28;20437;-67
2021/12/14 06:45:19;;;;;;;19.10;12.10;;;8.70;99.90;;;;;;5017313;28;20485;-68
2021/12/14 06:47:48;;;;;;;17.40;11.80;;;8.80;99.90;;;;;;5017693;28;20469;-67
2021/12/14 06:50:21;;;;;;;19.20;12.60;;;8.90;99.90;;;;;;5012091;28;21055;-67
2021/12/14 06:53:04;;;;;;;16.00;11.47;;;8.90;99.90;;;;;;5027941;28;20457;-66
2021/12/14 06:55:32;;;;;;;15.37;9.87;;;8.90;99.90;;;;;;5035561;28;20968;-67
2021/12/14 06:58:15;;;;;;;14.77;9.57;;;8.90;99.90;;;;;;5035163;28;20470;-67
2021/12/14 07:00:48;;;;;;;15.13;10.50;;;8.90;99.90;;;;;;5031075;28;20470;-67
2021/12/14 07:03:14;;;;;;;15.17;10.63;;;8.90;99.90;;;;;;5011495;28;20538;-66
2021/12/14 07:05:44;;;;;;;15.80;10.33;;;8.90;99.90;;;;;;5019668;28;20444;-67
2021/12/14 07:08:16;;;;;;;15.23;11.13;;;8.90;99.90;;;;;;5015432;28;20832;-67
2021/12/14 07:10:43;;;;;;;18.63;10.53;;;8.90;99.90;;;;;;5034935;28;20450;-67
2021/12/14 07:13:14;;;;;;;14.43;10.40;;;9.00;99.90;;;;;;5019489;28;20491;-67
2021/12/14 07:15:40;;;;;;;17.40;12.40;;;8.90;99.90;;;;;;5014417;28;20461;-67
2021/12/14 07:18:08;;;;;;;17.00;11.40;;;9.00;99.90;;;;;;5001785;28;20463;-66
2021/12/14 07:20:33;;;;;;;19.67;12.60;;;9.00;99.90;;;;;;4994207;28;20525;-66
2021/12/14 07:23:04;;;;;;;19.80;11.60;;;8.80;99.90;;;;;;5004956;28;20451;-67
2021/12/14 07:25:32;;;;;;;17.60;12.10;;;8.80;99.90;;;;;;5017069;28;20303;-66
2021/12/14 07:28:14;;;;;;;17.87;12.03;;;8.80;99.90;;;;;;5035683;28;20445;-67
2021/12/14 07:30:54;;;;;;;18.53;11.90;;;8.90;99.90;;;;;;5036416;28;20414;-67
2021/12/14 07:33:49;;;;;;;17.23;12.33;;;8.90;99.90;;;;;;5028700;28;20430;-67
2021/12/14 07:36:37;;;;;;;16.97;12.30;;;8.90;99.90;;;;;;5000464;28;20443;-67
2021/12/14 07:39:09;;;;;;;15.03;11.47;;;8.90;99.90;;;;;;5014933;28;20545;-67
2021/12/14 07:41:36;;;;;;;18.30;12.37;;;8.90;99.90;;;;;;5015760;28;20387;-66
2021/12/14 07:44:09;;;;;;;16.73;11.47;;;8.80;99.90;;;;;;5015536;28;20419;-67
2021/12/14 07:46:43;;;;;;;18.40;11.70;;;8.70;99.90;;;;;;5015642;28;20394;-67
2021/12/14 07:49:20;;;;;;;19.07;11.00;;;8.80;99.90;;;;;;5016469;28;20446;-67
2021/12/14 07:51:48;;;;;;;18.77;11.97;;;8.70;99.90;;;;;;5015406;28;20403;-67
2021/12/14 07:54:26;;;;;;;16.77;11.70;;;8.80;99.90;;;;;;5015427;28;20941;-67
2021/12/14 07:56:59;;;;;;;19.60;13.67;;;8.80;99.90;;;;;;5015012;28;20478;-67
2021/12/14 07:59:28;;;;;;;16.87;10.83;;;8.80;99.90;;;;;;5015357;28;20475;-67
2021/12/14 08:02:11;;;;;;;19.77;12.43;;;8.80;99.90;;;;;;5033982;28;20429;-67
2021/12/14 08:04:39;;;;;;;20.03;11.80;;;8.70;99.90;;;;;;5033661;28;20774;-67
2021/12/14 08:07:06;;;;;;;20.03;11.80;;;8.70;99.90;;;;;;5014942;28;20417;-67
2021/12/14 08:09:48;;;;;;;18.93;11.60;;;8.80;99.90;;;;;;5014934;28;20935;-67
2021/12/14 08:12:31;;;;;;;20.57;12.00;;;8.80;99.90;;;;;;5015539;28;20399;-67
2021/12/14 08:15:49;;;;;;;17.73;12.40;;;8.80;99.90;;;;;;5015296;28;20486;-67
2021/12/14 08:18:28;;;;;;;17.87;11.63;;;8.80;99.90;;;;;;5005803;28;20455;-66
2021/12/14 08:20:58;;;;;;;17.70;11.63;;;8.90;99.90;;;;;;5014833;28;20489;-68
2021/12/14 08:23:36;;;;;;;20.60;12.87;;;8.90;99.90;;;;;;5015153;28;20398;-67
2021/12/14 08:26:09;;;;;;;19.03;11.90;;;8.90;99.90;;;;;;5014648;28;20422;-67
2021/12/14 08:28:54;;;;;;;17.13;10.97;;;9.00;99.90;;;;;;5014954;28;20769;-67
2021/12/14 08:31:22;;;;;;;16.30;12.17;;;9.00;99.90;;;;;;5015014;28;20412;-68
2021/12/14 08:33:58;;;;;;;16.93;12.60;;;9.00;99.90;;;;;;5014754;28;20793;-67
2021/12/14 08:36:24;;;;;;;18.83;12.60;;;9.00;99.90;;;;;;5014697;28;20423;-68
2021/12/14 08:39:11;;;;;;;19.13;12.40;;;9.00;99.90;;;;;;5014779;28;20482;-67
2021/12/14 08:41:45;;;;;;;20.20;12.20;;;9.10;99.90;;;;;;5013654;28;20435;-68
2021/12/14 08:44:11;;;;;;;21.83;12.23;;;9.10;99.90;;;;;;4994804;28;20777;-68
2021/12/14 08:46:38;;;;;;;20.60;13.67;;;9.00;99.90;;;;;;4995023;28;20457;-68
2021/12/14 08:49:06;;;;;;;19.23;13.73;;;8.90;99.90;;;;;;4995458;28;20423;-67
2021/12/14 08:51:34;;;;;;;19.30;13.43;;;8.90;99.90;;;;;;5009972;28;20187;-68
2021/12/14 08:54:36;;;;;;;20.57;13.63;;;8.80;99.90;;;;;;5014145;28;20451;-67
2021/12/14 08:57:05;;;;;;;22.60;13.80;;;8.80;99.90;;;;;;4972418;28;20945;-67
2021/12/14 08:59:32;;;;;;;18.33;12.40;;;8.80;99.90;;;;;;4975035;28;20469;-68
2021/12/14 09:01:59;;;;;;;21.30;13.93;;;8.90;99.90;;;;;;4980473;28;20975;-67
2021/12/14 09:04:32;;;;;;;23.03;13.70;;;8.90;99.90;;;;;;4972266;28;20749;-66
2021/12/14 09:07:06;;;;;;;17.30;13.37;;;8.80;99.90;;;;;;4973054;28;20411;-69
2021/12/14 09:09:32;;;;;;;21.63;13.87;;;8.80;99.90;;;;;;4972858;28;20443;-66
2021/12/14 09:12:25;;;;;;;22.47;14.20;;;8.90;99.90;;;;;;4973025;28;20424;-67
2021/12/14 09:14:53;;;;;;;23.10;15.03;;;8.90;99.90;;;;;;4972600;28;20181;-67
2021/12/14 09:17:24;;;;;;;21.77;13.80;;;8.90;99.90;;;;;;4974167;28;20414;-67
2021/12/14 09:19:58;;;;;;;23.00;14.27;;;8.90;99.90;;;;;;4979855;28;20474;-68
2021/12/14 09:22:31;;;;;;;20.57;13.80;;;8.90;99.90;;;;;;4980954;28;20424;-67
2021/12/14 09:24:58;;;;;;;19.37;12.93;;;8.90;99.90;;;;;;4973121;28;20418;-67
2021/12/14 09:27:27;;;;;;;20.27;14.60;;;9.00;99.90;;;;;;4972270;28;20411;-67
2021/12/14 09:29:54;;;;;;;21.07;13.70;;;9.10;99.90;;;;;;4973609;28;20461;-67
2021/12/14 09:32:28;;;;;;;23.60;14.17;;;9.10;99.90;;;;;;5012308;28;20837;-67
2021/12/14 09:34:56;;;;;;;21.23;14.10;;;9.20;99.90;;;;;;5015917;28;20485;-68
2021/12/14 09:37:23;;;;;;;22.40;15.93;;;9.20;99.90;;;;;;5014122;28;20503;-67
2021/12/14 09:39:57;;;;;;;21.50;13.57;;;9.20;99.90;;;;;;5014049;28;20462;-68
2021/12/14 09:42:27;;;;;;;19.80;13.80;;;9.20;99.90;;;;;;5013506;28;20450;-67
2021/12/14 09:44:54;;;;;;;20.17;14.40;;;9.30;99.90;;;;;;5013579;28;20942;-68
2021/12/14 09:47:26;;;;;;;23.00;14.80;;;9.20;99.90;;;;;;5013510;28;20409;-67
2021/12/14 09:49:53;;;;;;;21.13;14.17;;;9.30;99.90;;;;;;5015610;28;20540;-66
2021/12/14 09:52:30;;;;;;;21.63;15.53;;;9.30;99.90;;;;;;5017602;28;20468;-67
2021/12/14 09:54:56;;;;;;;21.27;14.97;;;9.30;99.90;;;;;;5016208;28;20420;-67
2021/12/14 09:57:30;;;;;;;23.37;14.70;;;9.30;99.90;;;;;;5017040;28;20495;-67
2021/12/14 09:59:58;;;;;;;21.90;14.73;;;9.30;99.90;;;;;;5022639;28;21047;-67
2021/12/14 10:02:30;;;;;;;20.90;14.57;;;9.30;99.90;;;;;;5035627;28;20768;-66
2021/12/14 10:04:59;;;;;;;20.37;14.10;;;9.40;99.90;;;;;;4997900;28;20397;-67
2021/12/14 10:07:25;;;;;;;21.17;14.83;;;9.30;99.90;;;;;;4996295;28;20416;-67
2021/12/14 10:09:55;;;;;;;23.10;15.57;;;9.30;99.90;;;;;;5014427;28;20439;-67
2021/12/14 10:14:57;;;;;;;21.60;15.17;;;9.30;99.90;;;;;;5017931;28;20427;-67
2021/12/14 10:17:25;;;;;;;19.20;15.10;;;9.30;99.90;;;;;;5017137;28;20910;-68
2021/12/14 10:19:51;;;;;;;21.20;16.10;;;9.20;99.90;;;;;;5016673;28;20297;-66
2021/12/14 10:22:24;;;;;;;22.20;15.13;;;9.30;99.90;;;;;;5017059;28;20403;-69
2021/12/14 10:24:56;;;;;;;19.93;15.07;;;9.30;99.90;;;;;;5016443;28;20477;-66
2021/12/14 10:27:25;;;;;;;20.47;14.50;;;9.40;99.90;;;;;;5015035;28;20423;-67
2021/12/14 10:29:54;;;;;;;23.00;16.17;;;9.40;99.90;;;;;;5015872;28;20523;-67
2021/12/14 10:32:28;;;;;;;25.37;16.60;;;9.40;99.90;;;;;;5017926;28;20435;-67
2021/12/14 10:34:58;;;;;;;23.37;15.30;;;9.40;99.90;;;;;;5015979;28;20417;-67
2021/12/14 10:37:50;;;;;;;22.30;15.40;;;9.40;99.90;;;;;;5016161;28;20417;-66
2021/12/14 10:43:12;;;;;;;23.20;15.27;;;9.40;99.90;;;;;;5017179;28;20412;-67
2021/12/14 10:45:42;;;;;;;21.30;14.57;;;9.40;99.90;;;;;;5018598;28;20405;-67
2021/12/14 10:48:07;;;;;;;24.87;15.80;;;9.40;99.90;;;;;;5016687;28;20401;-67
2021/12/14 10:50:36;;;;;;;20.67;14.57;;;9.50;99.90;;;;;;5016201;28;20890;-66
2021/12/14 10:53:04;;;;;;;23.20;15.80;;;9.40;99.90;;;;;;5016195;28;20170;-67
2021/12/14 10:55:57;;;;;;;23.00;15.87;;;9.40;99.90;;;;;;5015882;28;20416;-68
2021/12/14 10:58:24;;;;;;;22.53;15.67;;;9.40;99.90;;;;;;5014644;28;20442;-68
2021/12/14 11:01:00;;;;;;;23.80;16.13;;;9.40;99.90;;;;;;5024996;28;20838;-68
2021/12/14 11:03:33;;;;;;;21.60;14.50;;;9.50;99.90;;;;;;5016144;28;20901;-68
2021/12/14 11:06:04;;;;;;;24.60;15.70;;;9.50;99.90;;;;;;5015216;28;20413;-67
2021/12/14 11:08:40;;;;;;;30.63;17.37;;;9.40;99.90;;;;;;5015660;28;20406;-68
2021/12/14 11:11:13;;;;;;;22.50;14.30;;;9.50;99.90;;;;;;5015589;28;20399;-68
2021/12/14 11:13:46;;;;;;;27.87;17.23;;;9.50;99.90;;;;;;5015388;28;20420;-68
2021/12/14 11:16:20;;;;;;;24.77;17.07;;;9.40;99.90;;;;;;5015320;28;20417;-68
2021/12/14 11:18:48;;;;;;;22.57;14.90;;;9.50;99.90;;;;;;5015503;28;20521;-68
2021/12/14 11:21:19;;;;;;;32.63;17.60;;;9.30;99.90;;;;;;5014964;28;20416;-68
2021/12/14 11:23:48;;;;;;;26.30;16.87;;;9.40;99.90;;;;;;5015288;28;20424;-68
2021/12/14 11:26:22;;;;;;;31.90;17.97;;;9.50;99.90;;;;;;5013737;28;20770;-68
2021/12/14 11:28:58;;;;;;;31.83;17.80;;;9.40;99.90;;;;;;5012414;28;20467;-68
2021/12/14 11:31:28;;;;;;;28.90;17.80;;;9.50;99.90;;;;;;5013944;28;20400;-68
2021/12/14 11:34:00;;;;;;;23.83;16.27;;;9.50;99.90;;;;;;5013237;28;20424;-68
2021/12/14 11:36:31;;;;;;;25.70;15.80;;;9.50;99.90;;;;;;5012543;28;20948;-68
2021/12/14 11:39:04;;;;;;;23.27;15.50;;;9.50;99.90;;;;;;5013953;28;20546;-67
2021/12/14 11:41:41;;;;;;;21.70;15.50;;;9.40;99.90;;;;;;5015175;28;21004;-67
2021/12/14 11:44:31;;;;;;;23.13;15.77;;;9.40;99.90;;;;;;5015415;28;20413;-68
2021/12/14 11:46:59;;;;;;;20.20;15.17;;;9.50;99.90;;;;;;5014849;28;20409;-68
2021/12/14 11:49:50;;;;;;;24.70;17.17;;;9.60;99.90;;;;;;5015610;28;20535;-68
2021/12/14 11:52:37;;;;;;;30.53;18.83;;;9.70;99.90;;;;;;5014422;28;20511;-69
2021/12/14 11:55:18;;;;;;;24.20;16.87;;;9.80;99.90;;;;;;5014938;28;20463;-68
2021/12/14 11:57:44;;;;;;;21.60;14.53;;;9.90;99.90;;;;;;5013580;28;20532;-69
2021/12/14 12:00:17;;;;;;;23.17;16.17;;;10.00;99.90;;;;;;5013656;28;20489;-68
2021/12/14 12:02:43;;;;;;;23.27;17.30;;;9.90;99.90;;;;;;5015868;28;20403;-67
2021/12/14 12:05:30;;;;;;;24.83;16.33;;;9.80;99.90;;;;;;5015911;28;20429;-66
2021/12/14 12:10:53;;;;;;;23.70;17.53;;;9.70;99.90;;;;;;5017306;28;20424;-67
2021/12/14 12:13:18;;;;;;;24.73;17.27;;;9.70;99.90;;;;;;5031523;28;20430;-66
2021/12/14 12:15:45;;;;;;;23.40;16.60;;;9.80;99.90;;;;;;5019646;28;20186;-66
2021/12/14 12:18:13;;;;;;;21.20;15.23;;;9.80;99.90;;;;;;5035086;28;20189;-66
2021/12/14 12:20:45;;;;;;;23.13;17.67;;;9.80;99.90;;;;;;5034676;28;20433;-65
2021/12/14 12:23:15;;;;;;;25.53;17.80;;;9.70;99.90;;;;;;5033983;28;20432;-66
2021/12/14 12:25:44;;;;;;;22.60;16.93;;;9.90;99.90;;;;;;5021290;28;20425;-67
2021/12/14 12:28:37;;;;;;;20.93;17.17;;;9.90;99.90;;;;;;5019031;28;20463;-67
2021/12/14 12:31:07;;;;;;;22.90;17.60;;;10.00;99.90;;;;;;5038036;28;20413;-67
2021/12/14 12:33:35;;;;;;;19.97;16.53;;;10.00;99.90;;;;;;5036146;28;20518;-67
2021/12/14 12:36:23;;;;;;;24.80;17.43;;;10.10;99.90;;;;;;5028015;28;20425;-67
2021/12/14 12:38:57;;;;;;;23.27;17.53;;;10.00;99.90;;;;;;5019295;28;20481;-67
2021/12/14 12:41:45;;;;;;;22.40;14.80;;;10.00;99.90;;;;;;5020242;28;20950;-67
2021/12/14 12:44:13;;;;;;;21.50;15.83;;;9.90;99.90;;;;;;5020674;28;20426;-67
2021/12/14 12:46:56;;;;;;;20.50;15.67;;;9.90;99.90;;;;;;5040414;28;20410;-68
2021/12/14 12:49:36;;;;;;;22.83;15.90;;;9.90;99.90;;;;;;5049928;28;20503;-68
2021/12/14 12:52:12;;;;;;;21.77;15.77;;;9.80;99.90;;;;;;5032710;28;20430;-66
2021/12/14 12:54:56;;;;;;;20.90;16.17;;;9.70;99.90;;;;;;5025459;28;20402;-66
2021/12/14 12:57:36;;;;;;;24.10;15.43;;;9.70;99.90;;;;;;5014924;28;20406;-67
2021/12/14 13:00:09;;;;;;;22.37;17.83;;;9.80;99.90;;;;;;5014234;28;20823;-67
2021/12/14 13:02:47;;;;;;;31.53;15.90;;;9.80;99.90;;;;;;5014284;28;20505;-67
2021/12/14 13:05:34;;;;;;;25.70;16.97;;;9.70;99.90;;;;;;5014581;28;20504;-67
2021/12/14 13:08:14;;;;;;;22.70;16.70;;;9.70;99.90;;;;;;5014926;28;20461;-67
2021/12/14 13:10:45;;;;;;;22.73;15.07;;;9.70;99.90;;;;;;5014184;28;20437;-68
2021/12/14 13:13:26;;;;;;;28.40;16.67;;;9.60;99.90;;;;;;5013595;28;20425;-67
2021/12/14 13:16:08;;;;;;;53.87;20.97;;;9.60;99.90;;;;;;5014013;28;20438;-69
2021/12/14 13:19:10;;;;;;;30.93;16.63;;;9.70;99.90;;;;;;5015583;28;20480;-66
2021/12/14 13:21:35;;;;;;;21.97;16.23;;;9.80;99.90;;;;;;5018741;28;20420;-67
2021/12/14 13:24:09;;;;;;;26.20;17.27;;;9.80;99.90;;;;;;5016758;28;20442;-68
2021/12/14 13:26:56;;;;;;;24.03;15.80;;;9.80;99.90;;;;;;5032534;28;20729;-68
2021/12/14 13:29:39;;;;;;;25.00;16.70;;;9.90;99.90;;;;;;5023366;28;20588;-68
2021/12/14 13:32:12;;;;;;;31.60;18.33;;;9.90;99.90;;;;;;5016535;28;20450;-67
2021/12/14 13:34:50;;;;;;;29.27;18.80;;;10.00;99.90;;;;;;5014533;28;20896;-68
2021/12/14 13:37:22;;;;;;;32.80;18.13;;;10.00;99.90;;;;;;5017917;28;20541;-69
2021/12/14 13:39:48;;;;;;;22.33;16.20;;;9.90;99.90;;;;;;5020094;28;20463;-69
2021/12/14 13:42:32;;;;;;;25.13;16.87;;;9.90;99.90;;;;;;5019856;28;20505;-68
2021/12/14 13:45:00;;;;;;;27.63;17.63;;;9.90;99.90;;;;;;5021322;28;20462;-69
2021/12/14 13:47:28;;;;;;;28.13;17.97;;;10.00;99.90;;;;;;5019413;28;20540;-66
2021/12/14 13:49:55;;;;;;;34.23;18.37;;;9.90;99.90;;;;;;5030294;28;20514;-66